createdAt,value
2019-05-07T00:04:19.101Z,8.02
2019-05-07T00:09:23.091Z,8.03
2019-05-07T00:14:24.314Z,8.03
2019-05-07T00:19:26.115Z,8.06
2019-05-07T00:24:27.677Z,8.01
2019-05-07T00:29:29.269Z,7.98
2019-05-07T00:34:37.074Z,7.93
2019-05-07T00:40:10.439Z,7.86
2019-05-07T00:45:21.675Z,7.82
2019-05-07T00:50:28.231Z,7.82
2019-05-07T00:55:29.923Z,7.78
2019-05-07T01:00:33.281Z,7.75
2019-05-07T01:05:35.121Z,7.78
2019-05-07T01:10:36.816Z,7.79
2019-05-07T01:15:38.507Z,7.82
2019-05-07T01:20:42.334Z,7.87
2019-05-07T01:25:43.676Z,7.88
2019-05-07T01:30:45.358Z,7.91
2019-05-07T01:36:05.353Z,7.89
2019-05-07T01:41:07.048Z,7.86
2019-05-07T01:46:08.837Z,7.85
2019-05-07T01:51:12.685Z,7.87
2019-05-07T01:56:14.003Z,7.90
2019-05-07T02:01:15.721Z,7.90
2019-05-07T02:06:25.515Z,7.92
2019-05-07T02:11:32.813Z,7.92
2019-05-07T02:16:34.687Z,7.85
2019-05-07T02:21:36.259Z,7.85
2019-05-07T02:26:37.987Z,7.83
2019-05-07T02:31:39.678Z,7.78
2019-05-07T02:36:43.309Z,7.73
2019-05-07T02:41:45.537Z,7.78
2019-05-07T02:47:13.074Z,7.81
2019-05-07T02:52:23.620Z,7.82
2019-05-07T02:57:26.348Z,7.83
2019-05-07T03:02:28.085Z,7.84
2019-05-07T03:07:29.791Z,7.82
2019-05-07T03:12:33.525Z,7.81
2019-05-07T03:17:34.954Z,7.80
2019-05-07T03:22:36.521Z,7.79
2019-05-07T03:27:38.206Z,7.78
2019-05-07T03:32:47.684Z,7.78
2019-05-07T03:37:50.075Z,7.78
2019-05-07T03:42:53.572Z,7.78
2019-05-07T03:48:06.041Z,7.77
2019-05-07T03:53:07.639Z,7.78
2019-05-07T03:58:09.316Z,7.78
2019-05-07T04:03:13.882Z,7.81
2019-05-07T04:08:14.516Z,7.85
2019-05-07T04:13:16.191Z,7.86
2019-05-07T04:18:17.890Z,7.87
2019-05-07T04:23:19.613Z,7.88
2019-05-07T04:28:53.698Z,7.91
2019-05-07T04:33:56.037Z,7.92
2019-05-07T04:38:57.729Z,7.95
2019-05-07T04:43:59.303Z,7.94
2019-05-07T04:49:03.773Z,8.03
2019-05-07T04:54:04.707Z,8.08
2019-05-07T04:59:06.485Z,8.10
2019-05-07T05:04:24.258Z,8.11
2019-05-07T05:09:12.609Z,8.16
2019-05-07T05:14:14.388Z,8.19
2019-05-07T05:19:15.966Z,8.19
2019-05-07T05:24:29.313Z,8.20
2019-05-07T05:29:32.364Z,8.25
2019-05-07T05:34:34.342Z,8.33
2019-05-07T05:39:36.003Z,8.35
2019-05-07T05:44:37.694Z,8.36
2019-05-07T05:49:39.800Z,8.35
2019-05-07T05:54:57.575Z,8.41
2019-05-07T06:00:27.449Z,8.43
2019-05-07T06:05:47.320Z,8.49
2019-05-07T06:11:02.535Z,8.47
2019-05-07T06:16:08.862Z,8.51
2019-05-07T06:21:24.138Z,8.54
2019-05-07T06:26:26.096Z,8.60
2019-05-07T06:31:27.740Z,8.59
2019-05-07T06:36:32.887Z,8.45
2019-05-07T06:41:52.969Z,8.34
2019-05-07T06:46:54.534Z,8.20
2019-05-07T06:51:56.242Z,8.13
2019-05-07T06:56:57.962Z,8.11
2019-05-07T07:02:28.250Z,8.05
2019-05-07T07:07:55.248Z,7.99
2019-05-07T07:12:56.934Z,7.91
2019-05-07T07:17:58.487Z,7.83
2019-05-07T07:23:02.390Z,7.77
2019-05-07T07:28:03.709Z,7.70
2019-05-07T07:33:06.632Z,7.68
2019-05-07T07:38:26.217Z,7.72
2019-05-07T07:43:27.928Z,7.69
2019-05-07T07:48:31.904Z,7.76
2019-05-07T07:53:35.412Z,7.81
2019-05-07T07:58:49.799Z,7.89
2019-05-07T08:03:52.296Z,8.00
2019-05-07T08:08:54.005Z,8.04
2019-05-07T08:13:55.718Z,8.06
2019-05-07T08:18:57.302Z,8.16
2019-05-07T08:23:58.840Z,8.25
2019-05-07T08:29:02.771Z,8.37
2019-05-07T08:34:16.030Z,8.46
2019-05-07T08:39:17.741Z,8.54
2019-05-07T08:44:22.391Z,8.73
2019-05-07T08:49:35.783Z,8.77
2019-05-07T08:54:29.381Z,8.81
2019-05-07T08:59:32.402Z,8.85
2019-05-07T09:04:34.100Z,8.92
2019-05-07T09:09:35.780Z,9.06
2019-05-07T09:14:37.459Z,9.31
2019-05-07T09:19:50.012Z,9.50
2019-05-07T09:24:42.732Z,9.41
2019-05-07T09:29:53.838Z,9.33
2019-05-07T09:34:55.917Z,9.28
2019-05-07T09:39:57.617Z,9.21
2019-05-07T09:44:59.210Z,9.41
2019-05-07T09:50:05.482Z,9.56
2019-05-07T09:55:14.146Z,9.68
2019-05-07T10:00:08.979Z,9.95
2019-05-07T10:05:11.481Z,10.22
2019-05-07T10:10:13.623Z,10.34
2019-05-07T10:15:16.062Z,10.27
2019-05-07T10:20:22.401Z,10.23
2019-05-07T10:25:22.597Z,10.15
2019-05-07T10:30:24.449Z,10.24
2019-05-07T10:35:26.290Z,10.37
2019-05-07T10:40:28.149Z,10.53
2019-05-07T10:45:47.242Z,10.64
2019-05-07T10:50:51.725Z,10.65
2019-05-07T10:55:53.728Z,10.58
2019-05-07T11:00:56.009Z,10.51
2019-05-07T11:05:58.058Z,10.46
2019-05-07T11:10:59.777Z,10.40
2019-05-07T11:16:06.873Z,10.71
2019-05-07T11:21:08.761Z,11.04
2019-05-07T11:26:11.780Z,11.33
2019-05-07T11:31:13.623Z,11.55
2019-05-07T11:36:15.474Z,11.35
2019-05-07T11:41:22.910Z,11.31
2019-05-07T11:46:32.756Z,11.11
2019-05-07T11:51:45.409Z,11.09
2019-05-07T11:56:46.977Z,11.53
2019-05-07T12:01:53.189Z,11.45
2019-05-07T12:06:54.750Z,12.08
2019-05-07T12:11:56.364Z,12.18
2019-05-07T12:16:57.965Z,12.07
2019-05-07T12:21:59.788Z,12.70
2019-05-07T12:27:02.649Z,12.92
2019-05-07T12:32:13.724Z,12.41
2019-05-07T12:37:15.280Z,12.01
2019-05-07T12:42:16.939Z,11.72
2019-05-07T12:47:18.489Z,11.61
2019-05-07T12:52:35.582Z,11.59
2019-05-07T12:57:37.321Z,11.51
2019-05-07T13:02:44.348Z,11.47
2019-05-07T13:07:50.277Z,11.55
2019-05-07T13:12:52.703Z,11.72
2019-05-07T13:17:54.470Z,11.77
2019-05-07T13:22:56.195Z,11.78
2019-05-07T13:27:57.836Z,11.78
2019-05-07T13:32:59.498Z,11.75
2019-05-07T13:38:23.711Z,11.75
2019-05-07T13:43:28.545Z,11.84
2019-05-07T13:48:31.709Z,12.48
2019-05-07T13:53:33.572Z,13.11
2019-05-07T13:58:35.298Z,13.48
2019-05-07T14:03:36.992Z,13.53
2019-05-07T14:08:42.340Z,13.65
2019-05-07T14:13:44.070Z,13.57
2019-05-07T14:18:45.804Z,13.34
2019-05-07T14:23:47.408Z,13.08
2019-05-07T14:28:48.988Z,13.18
2019-05-07T14:34:02.878Z,12.86
2019-05-07T14:39:06.419Z,12.73
2019-05-07T14:44:13.383Z,12.62
2019-05-07T14:49:15.051Z,12.46
2019-05-07T14:54:18.332Z,12.43
2019-05-07T14:59:20.108Z,12.56
2019-05-07T15:04:22.214Z,12.67
2019-05-07T15:09:23.899Z,13.19
2019-05-07T15:14:25.574Z,13.00
2019-05-07T15:19:27.271Z,12.80
2019-05-07T15:24:28.963Z,12.60
2019-05-07T15:29:31.881Z,12.43
2019-05-07T15:34:33.646Z,12.27
2019-05-07T15:39:36.773Z,12.14
2019-05-07T15:44:38.440Z,12.01
2019-05-07T15:49:41.780Z,11.94
2019-05-07T15:54:43.814Z,11.88
2019-05-07T15:59:45.379Z,11.86
2019-05-07T16:04:47.027Z,11.84
2019-05-07T16:09:48.714Z,11.78
2019-05-07T16:14:52.311Z,11.75
2019-05-07T16:19:55.195Z,11.76
2019-05-07T16:24:56.915Z,11.82
2019-05-07T16:29:58.468Z,11.89
2019-05-07T16:35:00.063Z,11.96
2019-05-07T16:40:04.568Z,12.08
2019-05-07T16:45:05.563Z,12.12
2019-05-07T16:50:07.731Z,12.03
2019-05-07T16:55:12.080Z,12.00
2019-05-07T17:00:19.617Z,11.97
2019-05-07T17:05:22.853Z,11.99
2019-05-07T17:10:24.713Z,12.02
2019-05-07T17:15:26.263Z,12.03
2019-05-07T17:20:28.040Z,12.00
2019-05-07T17:25:38.421Z,11.99
2019-05-07T17:30:41.915Z,11.96
2019-05-07T17:35:45.959Z,11.95
2019-05-07T17:40:47.008Z,11.91
2019-05-07T17:45:48.562Z,11.90
2019-05-07T17:51:09.878Z,11.88
2019-05-07T17:56:12.757Z,11.87
2019-05-07T18:01:14.474Z,11.87
2019-05-07T18:06:16.163Z,11.87
2019-05-07T18:11:21.357Z,11.84
2019-05-07T18:16:27.910Z,11.80
2019-05-07T18:21:29.448Z,11.77
2019-05-07T18:26:33.777Z,11.72
2019-05-07T18:31:56.401Z,11.70
2019-05-07T18:36:58.135Z,11.67
2019-05-07T18:41:59.722Z,11.66
2019-05-07T18:47:02.373Z,11.62
2019-05-07T18:52:04.073Z,11.58
2019-05-07T18:57:05.648Z,11.50
2019-05-07T19:02:07.831Z,11.47
2019-05-07T19:07:09.490Z,11.42
2019-05-07T19:12:13.065Z,11.36
2019-05-07T19:17:15.004Z,11.27
2019-05-07T19:22:16.571Z,11.26
2019-05-07T19:27:18.137Z,11.26
2019-05-07T19:32:19.719Z,11.14
2019-05-07T19:37:22.395Z,11.13
2019-05-07T19:42:24.083Z,11.21
2019-05-07T19:47:25.779Z,11.19
2019-05-07T19:52:27.451Z,11.09
2019-05-07T19:57:33.339Z,11.15
2019-05-07T20:02:40.512Z,11.15
2019-05-07T20:07:42.378Z,11.17
2019-05-07T20:12:43.947Z,11.12
2019-05-07T20:17:45.476Z,11.10
2019-05-07T20:22:47.005Z,11.11
2019-05-07T20:27:48.682Z,11.10
2019-05-07T20:32:52.190Z,11.06
2019-05-07T20:37:53.697Z,11.07
2019-05-07T20:42:55.242Z,11.08
2019-05-07T20:47:56.798Z,11.00
2019-05-07T20:52:58.339Z,11.00
2019-05-07T20:57:59.862Z,10.93
2019-05-07T21:03:19.557Z,10.92
2019-05-07T21:08:22.725Z,10.93
2019-05-07T21:13:30.944Z,10.87
2019-05-07T21:18:28.200Z,10.72
2019-05-07T21:23:29.717Z,10.69
2019-05-07T21:28:32.401Z,10.70
2019-05-07T21:33:34.130Z,10.72
2019-05-07T21:38:35.768Z,10.70
2019-05-07T21:43:37.302Z,10.74
2019-05-07T21:48:38.890Z,10.78
2019-05-07T21:53:54.086Z,10.67
2019-05-07T21:59:03.106Z,10.63
2019-05-07T22:04:04.914Z,10.61
2019-05-07T22:09:08.377Z,10.61
2019-05-07T22:14:10.056Z,10.63
2019-05-07T22:19:12.217Z,10.64
2019-05-07T22:24:15.211Z,10.65
2019-05-07T22:29:17.129Z,10.62
2019-05-07T22:34:32.568Z,10.61
2019-05-07T22:39:34.150Z,10.64
2019-05-07T22:44:35.743Z,10.63
2019-05-07T22:49:37.322Z,10.62
2019-05-07T22:54:38.909Z,10.50
2019-05-07T22:59:40.490Z,10.37
2019-05-07T23:04:43.140Z,10.31
2019-05-07T23:09:45.050Z,10.25
2019-05-07T23:14:46.601Z,10.27
2019-05-07T23:19:52.206Z,10.25
2019-05-07T23:24:53.050Z,10.19
2019-05-07T23:29:54.799Z,10.13
2019-05-07T23:34:56.500Z,10.09
2019-05-07T23:40:02.928Z,10.07
2019-05-07T23:45:04.687Z,10.02
2019-05-07T23:50:06.347Z,9.96
2019-05-07T23:55:08.108Z,9.94
